»·PEaware :: N41G KWHP-KOXR

N41G :: KWHP-KOXR

FLIGHT INFORMATION

Flight Status: Arrived
Operator: Privately registered:
United States
More flights under this callsign
Pilot: Alec D. (17934)
Aircraft: BEECH AIRCRAFT BONANZA
(BE35)
More flights by this aircraft type
Origin: KWHP Whiteman
United States
Destination: KOXR Oxnard
United States
More flights between these airports :: More routes between these airports
Route: +FIM
File this flight plan on PilotEdge
Remarks:
Altitude:
(Current/Filed)
6,000ft
Speed:
(Current/Filed)
160kts
Departed: 19-Mar-20 09:27 AM
Arrived: 19-Mar-20 09:48 AM
Distance/Time
Traveled:
39nm/0:21
Distance/Time
To Go:
Arrived

Flight Plot

Page will automatically refresh every two minutes.

Flight plan parsing failed; only flown route is shown


Map Options




Map Legend


Flown Route
Filed Route
Departure Airport
Arrival Airport
Navaid (VOR, NDB)
Fix

Horizontal Profiles

Position Reports

Time Latitude Longitude Heading Altitude Ground
Speed
19-Mar-20 09:03 34.260129 -118.412004 139 1006ft 0kts
19-Mar-20 09:04 34.260129 -118.412004 139 1006ft 0kts
19-Mar-20 09:05 34.260128 -118.412003 139 1006ft 0kts
19-Mar-20 09:06 34.260122 -118.411997 139 1006ft 0kts
19-Mar-20 09:07 34.260118 -118.411993 139 1006ft 0kts
19-Mar-20 09:08 34.260114 -118.411988 139 1006ft 0kts
19-Mar-20 09:09 34.260109 -118.411983 139 1006ft 0kts
19-Mar-20 09:10 34.260105 -118.411978 139 1006ft 0kts
19-Mar-20 09:11 34.260100 -118.411974 139 1006ft 0kts
19-Mar-20 09:12 34.260095 -118.411969 139 1006ft 0kts
19-Mar-20 09:13 34.260091 -118.411964 139 1006ft 0kts
19-Mar-20 09:14 34.260086 -118.411959 139 1006ft 0kts
19-Mar-20 09:15 34.260081 -118.411954 139 1006ft 0kts
19-Mar-20 09:16 34.260077 -118.411949 139 1006ft 0kts
19-Mar-20 09:17 34.260072 -118.411945 139 1006ft 0kts
19-Mar-20 09:18 34.258461 -118.411638 145 1006ft 10kts
19-Mar-20 09:19 34.255589 -118.408632 164 1006ft 4kts
19-Mar-20 09:20 34.255462 -118.408670 224 1006ft 0kts
19-Mar-20 09:21 34.255452 -118.408681 223 1006ft 0kts
19-Mar-20 09:22 34.255448 -118.408686 223 1006ft 0kts
19-Mar-20 09:23 34.255443 -118.408692 223 1006ft 0kts
19-Mar-20 09:24 34.255438 -118.408698 223 1006ft 0kts
19-Mar-20 09:25 34.255433 -118.408703 223 1006ft 0kts
19-Mar-20 09:26 34.261757 -118.416015 318 1063ft 94kts
19-Mar-20 09:27 34.273633 -118.446117 272 2262ft 109kts
19-Mar-20 09:28 34.275809 -118.482128 274 3433ft 108kts
19-Mar-20 09:29 34.284906 -118.518666 325 4262ft 129kts
19-Mar-20 09:30 34.298530 -118.545364 209 4935ft 137kts
19-Mar-20 09:31 34.263873 -118.562603 255 4993ft 150kts
19-Mar-20 09:32 34.278618 -118.609900 284 5026ft 152kts
19-Mar-20 09:33 34.291885 -118.659264 287 5007ft 155kts
19-Mar-20 09:34 34.305660 -118.708827 287 4984ft 156kts
19-Mar-20 09:35 34.319143 -118.758663 285 4970ft 156kts
19-Mar-20 09:36 34.307628 -118.802009 214 4956ft 154kts
19-Mar-20 09:37 34.270121 -118.828772 213 4522ft 156kts
19-Mar-20 09:38 34.233756 -118.857026 214 4024ft 155kts
19-Mar-20 09:39 34.205854 -118.891800 259 3830ft 152kts
19-Mar-20 09:40 34.200655 -118.941698 266 3608ft 147kts
19-Mar-20 09:41 34.199313 -118.990926 266 3566ft 147kts
19-Mar-20 09:42 34.198618 -119.038552 268 3205ft 148kts
19-Mar-20 09:43 34.198570 -119.089207 271 1997ft 150kts
19-Mar-20 09:44 34.200482 -119.138833 269 1056ft 128kts
19-Mar-20 09:45 34.200544 -119.172258 271 557ft 80kts
19-Mar-20 09:46 34.200742 -119.200099 271 100ft 85kts
19-Mar-20 09:47 34.200400 -119.211694 239 46ft 0kts
19-Mar-20 09:48 34.200349 -119.211799 239 46ft 4kts
19-Mar-20 09:49 34.199733 -119.209940 90 46ft 16kts
19-Mar-20 09:50 34.199658 -119.203583 90 46ft 14kts
19-Mar-20 09:52 34.198135 -119.200268 111 46ft 10kts
19-Mar-20 09:53 34.198120 -119.200033 89 46ft 0kts
19-Mar-20 09:54 34.198120 -119.200033 89 46ft 0kts
19-Mar-20 09:55 34.198120 -119.200033 89 46ft 0kts
19-Mar-20 09:56 34.198120 -119.200033 89 46ft 0kts
19-Mar-20 09:57 34.198120 -119.200033 89 46ft 0kts
19-Mar-20 09:58 34.198120 -119.200033 89 46ft 0kts
19-Mar-20 09:59 34.198120 -119.200033 89 46ft 0kts

Navigation Log

Ident Type
Flight plan parsing failed, navigation log unavailable